Time;durP1;ratioP1;P1;durP2;ratioP2;P2;SDS_P1;SDS_P2;PMS_P1;PMS_P2;Temp;Humidity;BMP_temperature;BMP_pressure;BME280_temperature;BME280_humidity;BME280_pressure;Samples;Min_cycle;Max_cycle;Signal;HPM_P1;HPM_P2
2022/10/15 00:01:40;;;;;;;;;11.33;8.33;;;;;;;;5036720;27;50954;-49
2022/10/15 00:04:06;;;;;;;;;11.00;10.67;;;;;;;;5010271;27;52155;-51
2022/10/15 00:06:31;;;;;;;;;12.67;11.00;;;;;;;;5003158;27;51034;-49
2022/10/15 00:08:56;;;;;;;;;14.00;12.33;;;;;;;;5003820;27;51045;-48
2022/10/15 00:11:22;;;;;;;;;11.00;11.00;;;;;;;;5010758;28;51115;-50
2022/10/15 00:13:48;;;;;;;;;11.33;11.33;;;;;;;;5010150;28;53147;-50
2022/10/15 00:16:16;;;;;;;;;11.67;10.33;;;;;;;;5026089;27;50955;-48
2022/10/15 00:18:41;;;;;;;;;9.33;9.33;;;;;;;;5004425;27;50958;-50
2022/10/15 00:21:08;;;;;;;;;11.33;11.00;;;;;;;;5008756;27;50940;-48
2022/10/15 00:23:33;;;;;;;;;11.33;11.33;;;;;;;;5008412;27;51946;-49
2022/10/15 00:26:05;;;;;;;;;12.00;11.00;;;;;;;;5003415;28;51288;-51
2022/10/15 00:28:31;;;;;;;;;10.00;10.00;;;;;;;;5009165;27;51224;-50
2022/10/15 00:31:01;;;;;;;;;16.33;15.67;;;;;;;;5003603;28;51142;-51
2022/10/15 00:33:26;;;;;;;;;14.00;13.00;;;;;;;;5004949;27;52792;-50
2022/10/15 00:36:12;;;;;;;;;18.00;17.00;;;;;;;;5000917;28;51162;-52
2022/10/15 00:38:37;;;;;;;;;11.67;11.67;;;;;;;;5005872;27;51276;-50
2022/10/15 00:41:04;;;;;;;;;12.00;12.00;;;;;;;;5001830;27;51048;-51
2022/10/15 00:43:35;;;;;;;;;12.00;11.00;;;;;;;;5010050;28;51073;-49
2022/10/15 00:46:00;;;;;;;;;10.00;10.00;;;;;;;;5011783;27;51037;-49
2022/10/15 00:48:26;;;;;;;;;10.67;9.67;;;;;;;;5007829;27;51115;-49
2022/10/15 00:50:52;;;;;;;;;10.00;9.33;;;;;;;;5002986;28;51369;-50
2022/10/15 00:53:17;;;;;;;;;10.00;10.00;;;;;;;;5015442;28;51610;-53
2022/10/15 00:55:42;;;;;;;;;14.00;13.00;;;;;;;;4997459;27;51032;-49
2022/10/15 00:58:10;;;;;;;;;7.00;7.00;;;;;;;;5011978;27;52723;-51
2022/10/15 01:00:35;;;;;;;;;52.00;43.00;;;;;;;;5005783;27;51126;-49
2022/10/15 01:03:00;;;;;;;;;12.33;12.00;;;;;;;;5009072;28;52709;-50
2022/10/15 01:05:25;;;;;;;;;17.75;17.75;;;;;;;;5008785;27;50838;-48
2022/10/15 01:07:51;;;;;;;;;18.25;17.50;;;;;;;;5007015;27;51296;-52
2022/10/15 01:10:17;;;;;;;;;4.00;4.00;;;;;;;;5008146;28;51060;-47
2022/10/15 01:12:51;;;;;;;;;6.33;5.33;;;;;;;;5007067;27;51966;-51
2022/10/15 01:15:17;;;;;;;;;5.67;5.00;;;;;;;;5008222;28;51076;-49
2022/10/15 01:17:58;;;;;;;;;7.00;6.00;;;;;;;;5020877;27;51178;-50
2022/10/15 01:20:43;;;;;;;;;5.00;5.00;;;;;;;;5009939;27;51316;-49
2022/10/15 01:23:11;;;;;;;;;5.33;5.33;;;;;;;;5005219;27;51781;-48
2022/10/15 01:25:39;;;;;;;;;14.25;14.25;;;;;;;;5004918;27;51169;-49
2022/10/15 01:28:08;;;;;;;;;70.50;59.50;;;;;;;;5006048;27;51137;-50
2022/10/15 01:30:37;;;;;;;;;33.00;30.00;;;;;;;;5009522;27;51131;-49
2022/10/15 01:33:11;;;;;;;;;3.00;3.00;;;;;;;;5009057;28;50996;-49
2022/10/15 01:35:42;;;;;;;;;4.00;3.67;;;;;;;;5007812;27;50944;-49
2022/10/15 01:38:15;;;;;;;;;4.67;4.67;;;;;;;;5005685;27;51074;-52
2022/10/15 01:40:53;;;;;;;;;4.00;4.00;;;;;;;;5009578;27;51320;-50
2022/10/15 01:43:21;;;;;;;;;3.00;3.00;;;;;;;;5003474;27;53236;-51
2022/10/15 01:45:56;;;;;;;;;4.00;4.00;;;;;;;;5008225;27;50925;-49
2022/10/15 01:48:22;;;;;;;;;6.00;5.00;;;;;;;;5008690;27;51213;-51
2022/10/15 01:50:50;;;;;;;;;6.33;6.33;;;;;;;;5007927;27;51018;-54
2022/10/15 01:53:17;;;;;;;;;10.00;10.00;;;;;;;;5013178;27;52032;-49
2022/10/15 01:55:44;;;;;;;;;6.00;6.00;;;;;;;;5007074;28;51012;-50
2022/10/15 01:58:10;;;;;;;;;6.67;6.67;;;;;;;;5007489;28;50838;-50
2022/10/15 02:00:36;;;;;;;;;7.00;7.00;;;;;;;;5024975;27;51338;-49
2022/10/15 02:03:01;;;;;;;;;6.00;6.00;;;;;;;;5017372;27;51840;-50
2022/10/15 02:05:29;;;;;;;;;7.00;6.00;;;;;;;;5008753;28;50959;-49
2022/10/15 02:08:05;;;;;;;;;6.00;6.00;;;;;;;;5008374;27;51294;-50
2022/10/15 02:10:35;;;;;;;;;6.00;6.00;;;;;;;;5011351;27;51084;-49
2022/10/15 02:13:13;;;;;;;;;5.00;5.00;;;;;;;;5008631;28;51780;-49
2022/10/15 02:15:48;;;;;;;;;6.33;5.67;;;;;;;;5017210;27;51011;-51
2022/10/15 02:18:19;;;;;;;;;4.33;4.33;;;;;;;;5000181;28;51201;-50
2022/10/15 02:20:58;;;;;;;;;16.50;16.50;;;;;;;;5010090;27;51283;-48
2022/10/15 02:23:38;;;;;;;;;6.00;6.00;;;;;;;;5006267;27;52649;-48
2022/10/15 02:26:06;;;;;;;;;6.00;5.67;;;;;;;;4997507;28;51032;-52
2022/10/15 02:28:32;;;;;;;;;2.00;2.00;;;;;;;;5009758;27;51023;-48
2022/10/15 02:30:58;;;;;;;;;2.67;2.67;;;;;;;;5010374;27;50910;-49
2022/10/15 02:33:24;;;;;;;;;4.00;3.33;;;;;;;;5008217;27;51423;-48
2022/10/15 02:35:50;;;;;;;;;28.50;28.00;;;;;;;;5001096;28;51042;-50
2022/10/15 02:38:18;;;;;;;;;7.67;7.00;;;;;;;;5012113;28;51145;-49
2022/10/15 02:40:44;;;;;;;;;8.00;7.67;;;;;;;;5013138;27;51617;-50
2022/10/15 02:43:11;;;;;;;;;5.33;5.33;;;;;;;;5012012;28;51458;-50
2022/10/15 02:45:37;;;;;;;;;6.00;6.00;;;;;;;;5011040;27;50903;-51
2022/10/15 02:48:02;;;;;;;;;3.33;3.33;;;;;;;;5008597;28;51083;-50
2022/10/15 02:50:27;;;;;;;;;3.33;3.33;;;;;;;;5009959;27;51195;-50
2022/10/15 02:52:52;;;;;;;;;4.00;4.00;;;;;;;;5013093;28;51881;-51
2022/10/15 02:55:18;;;;;;;;;5.00;4.00;;;;;;;;5010264;27;50950;-49
2022/10/15 02:57:43;;;;;;;;;5.00;5.00;;;;;;;;5012015;28;50984;-49
2022/10/15 03:00:08;;;;;;;;;8.00;8.00;;;;;;;;5024781;27;51053;-49
2022/10/15 03:02:33;;;;;;;;;20.00;19.00;;;;;;;;5034955;27;51170;-49
2022/10/15 03:04:59;;;;;;;;;7.00;6.00;;;;;;;;4998139;27;51003;-49
2022/10/15 03:07:24;;;;;;;;;3.67;3.67;;;;;;;;5006369;28;51357;-51
2022/10/15 03:09:49;;;;;;;;;3.00;2.00;;;;;;;;5002971;27;51093;-50
2022/10/15 03:12:14;;;;;;;;;2.00;2.00;;;;;;;;5006719;28;52298;-50
2022/10/15 03:14:39;;;;;;;;;2.00;2.00;;;;;;;;5007641;27;51124;-48
2022/10/15 03:17:05;;;;;;;;;2.00;2.00;;;;;;;;5080623;27;51364;-49
2022/10/15 03:19:30;;;;;;;;;2.67;2.67;;;;;;;;5006536;27;50882;-56
2022/10/15 03:21:55;;;;;;;;;3.00;2.00;;;;;;;;5004352;27;51913;-52
2022/10/15 03:24:20;;;;;;;;;1.00;1.00;;;;;;;;5008756;27;51210;-49
2022/10/15 03:26:45;;;;;;;;;1.00;1.00;;;;;;;;5011631;28;50908;-50
2022/10/15 03:29:10;;;;;;;;;2.00;2.00;;;;;;;;5008823;27;51415;-50
2022/10/15 03:31:36;;;;;;;;;1.00;1.00;;;;;;;;5005187;28;52273;-50
2022/10/15 03:34:01;;;;;;;;;2.00;1.00;;;;;;;;5004665;28;51061;-49
2022/10/15 03:36:26;;;;;;;;;1.00;1.00;;;;;;;;5003422;27;51147;-50
2022/10/15 03:38:51;;;;;;;;;1.00;1.00;;;;;;;;5009981;27;51005;-49
2022/10/15 03:41:16;;;;;;;;;1.00;1.00;;;;;;;;5009783;27;51079;-48
2022/10/15 03:43:42;;;;;;;;;0.33;0.33;;;;;;;;5007268;27;50979;-49
2022/10/15 03:46:07;;;;;;;;;1.00;1.00;;;;;;;;5010421;27;51050;-52
2022/10/15 03:48:32;;;;;;;;;0.00;0.00;;;;;;;;5006531;27;51132;-49
2022/10/15 03:50:57;;;;;;;;;0.67;0.00;;;;;;;;5010493;28;51919;-50
2022/10/15 03:53:22;;;;;;;;;0.00;0.00;;;;;;;;5006785;27;51098;-51
2022/10/15 03:55:48;;;;;;;;;0.33;0.33;;;;;;;;5006396;27;51199;-49
2022/10/15 03:58:13;;;;;;;;;1.33;1.33;;;;;;;;5011050;27;51289;-48
2022/10/15 04:00:42;;;;;;;;;1.00;0.00;;;;;;;;5032274;27;52914;-50
2022/10/15 04:03:07;;;;;;;;;0.33;0.33;;;;;;;;5014103;27;51148;-51
2022/10/15 04:05:32;;;;;;;;;1.00;0.00;;;;;;;;5001401;27;51314;-49
2022/10/15 04:07:57;;;;;;;;;1.00;1.00;;;;;;;;5006143;27;51441;-51
2022/10/15 04:10:22;;;;;;;;;0.00;0.00;;;;;;;;5004122;27;51086;-48
2022/10/15 04:12:48;;;;;;;;;0.00;0.00;;;;;;;;5008840;27;51019;-51
2022/10/15 04:15:13;;;;;;;;;0.00;0.00;;;;;;;;4999118;27;50855;-51
2022/10/15 04:17:38;;;;;;;;;0.67;0.67;;;;;;;;5052085;27;51298;-49
2022/10/15 04:20:03;;;;;;;;;1.00;1.00;;;;;;;;5010089;27;51952;-49
2022/10/15 04:22:29;;;;;;;;;1.00;1.00;;;;;;;;5010353;27;51050;-49
2022/10/15 04:24:54;;;;;;;;;0.33;0.00;;;;;;;;5009939;28;51117;-51
2022/10/15 04:27:19;;;;;;;;;0.33;0.00;;;;;;;;5001160;27;51298;-50
2022/10/15 04:29:46;;;;;;;;;0.00;0.00;;;;;;;;5003434;27;52959;-49
2022/10/15 04:32:14;;;;;;;;;1.67;1.00;;;;;;;;5011744;27;51001;-49
2022/10/15 04:34:39;;;;;;;;;0.67;0.67;;;;;;;;5009491;27;51083;-49
2022/10/15 04:37:04;;;;;;;;;1.00;1.00;;;;;;;;5012351;27;52873;-50
2022/10/15 04:39:29;;;;;;;;;1.00;1.00;;;;;;;;5002394;28;51781;-50
2022/10/15 04:41:54;;;;;;;;;1.00;0.67;;;;;;;;5005802;27;51060;-49
2022/10/15 04:44:20;;;;;;;;;1.00;1.00;;;;;;;;4988183;27;51188;-50
2022/10/15 04:46:45;;;;;;;;;1.33;1.33;;;;;;;;5008697;27;51145;-52
2022/10/15 04:49:10;;;;;;;;;0.00;0.00;;;;;;;;5006232;28;51887;-50
2022/10/15 04:51:36;;;;;;;;;1.00;1.00;;;;;;;;5003532;28;50885;-48
2022/10/15 04:54:01;;;;;;;;;0.67;0.67;;;;;;;;5002182;27;50998;-49
2022/10/15 04:56:27;;;;;;;;;1.00;0.00;;;;;;;;5010655;28;51090;-49
2022/10/15 04:58:52;;;;;;;;;2.00;2.00;;;;;;;;5010738;27;52022;-51
2022/10/15 05:01:18;;;;;;;;;0.00;0.00;;;;;;;;5029229;27;51143;-49
2022/10/15 05:03:44;;;;;;;;;12.00;12.00;;;;;;;;5019786;27;51130;-49
2022/10/15 05:06:10;;;;;;;;;1.33;1.00;;;;;;;;5010581;28;51807;-49
2022/10/15 05:08:37;;;;;;;;;1.00;1.00;;;;;;;;5006748;27;51935;-50
2022/10/15 05:11:06;;;;;;;;;0.00;0.00;;;;;;;;5008495;28;51172;-49
2022/10/15 05:13:32;;;;;;;;;1.00;0.00;;;;;;;;5001528;27;51104;-49
2022/10/15 05:16:07;;;;;;;;;0.00;0.00;;;;;;;;5037026;27;51197;-49
2022/10/15 05:18:32;;;;;;;;;11.33;10.67;;;;;;;;5037988;27;52075;-49
2022/10/15 05:21:00;;;;;;;;;0.00;0.00;;;;;;;;5010096;28;50996;-48
2022/10/15 05:23:25;;;;;;;;;1.00;1.00;;;;;;;;5001674;28;51055;-50
2022/10/15 05:25:50;;;;;;;;;1.00;1.00;;;;;;;;4992954;27;51708;-49
2022/10/15 05:28:15;;;;;;;;;0.00;0.00;;;;;;;;5007937;27;51101;-49
2022/10/15 05:30:40;;;;;;;;;0.67;0.33;;;;;;;;5008671;28;51066;-51
2022/10/15 05:33:06;;;;;;;;;0.67;0.67;;;;;;;;5007331;27;51189;-49
2022/10/15 05:35:31;;;;;;;;;1.00;1.00;;;;;;;;5008697;27;51312;-51
2022/10/15 05:37:56;;;;;;;;;0.33;0.33;;;;;;;;5009282;27;51140;-50
2022/10/15 05:40:21;;;;;;;;;1.00;1.00;;;;;;;;5009796;28;51071;-52
2022/10/15 05:42:49;;;;;;;;;2.00;2.00;;;;;;;;5006520;27;51079;-53
2022/10/15 05:45:15;;;;;;;;;2.67;2.67;;;;;;;;5005172;27;51096;-50
2022/10/15 05:47:40;;;;;;;;;5.67;5.67;;;;;;;;5008834;27;51821;-49
2022/10/15 05:50:05;;;;;;;;;5.00;5.00;;;;;;;;5007482;27;50942;-48
2022/10/15 05:52:31;;;;;;;;;4.67;4.00;;;;;;;;5015109;28;50922;-50
2022/10/15 05:54:56;;;;;;;;;3.67;3.00;;;;;;;;5007715;28;51610;-50
2022/10/15 05:57:21;;;;;;;;;2.00;2.00;;;;;;;;5010208;27;52054;-52
2022/10/15 05:59:46;;;;;;;;;2.00;2.00;;;;;;;;5009527;27;51040;-51
2022/10/15 06:02:14;;;;;;;;;0.67;0.67;;;;;;;;5036558;27;51027;-50
2022/10/15 06:04:40;;;;;;;;;1.00;1.00;;;;;;;;5002386;27;51262;-50
2022/10/15 06:07:05;;;;;;;;;0.00;0.00;;;;;;;;5007958;27;51679;-52
2022/10/15 06:09:30;;;;;;;;;2.00;0.33;;;;;;;;5012003;28;51235;-52
2022/10/15 06:11:55;;;;;;;;;0.00;0.00;;;;;;;;5011884;27;51188;-50
2022/10/15 06:14:20;;;;;;;;;1.00;1.00;;;;;;;;5007242;27;52419;-49
2022/10/15 06:16:49;;;;;;;;;2.00;1.00;;;;;;;;5072027;27;51219;-49
2022/10/15 06:19:14;;;;;;;;;1.00;1.00;;;;;;;;5011219;27;50904;-50
2022/10/15 06:21:39;;;;;;;;;1.00;0.67;;;;;;;;5022014;27;51988;-49
2022/10/15 06:24:05;;;;;;;;;2.00;2.00;;;;;;;;5006198;27;51322;-52
2022/10/15 06:26:30;;;;;;;;;1.00;1.00;;;;;;;;5007170;27;52955;-49
2022/10/15 06:28:55;;;;;;;;;1.00;1.00;;;;;;;;5005365;28;50861;-50
2022/10/15 06:31:20;;;;;;;;;1.00;1.00;;;;;;;;5028898;27;51125;-50
2022/10/15 06:33:45;;;;;;;;;2.00;2.00;;;;;;;;5005250;27;51464;-51
2022/10/15 06:36:12;;;;;;;;;2.00;2.00;;;;;;;;4999446;27;51961;-50
2022/10/15 06:38:38;;;;;;;;;1.00;1.00;;;;;;;;5010154;28;51096;-51
2022/10/15 06:41:03;;;;;;;;;1.00;1.00;;;;;;;;5014659;27;50804;-51
2022/10/15 06:43:29;;;;;;;;;3.00;1.67;;;;;;;;5029782;27;51392;-50
2022/10/15 06:45:54;;;;;;;;;2.00;2.00;;;;;;;;5015674;27;51857;-51
2022/10/15 06:48:19;;;;;;;;;5.00;2.67;;;;;;;;5012001;27;51075;-50
2022/10/15 06:50:44;;;;;;;;;4.00;4.00;;;;;;;;5052561;27;52056;-51
2022/10/15 06:53:09;;;;;;;;;4.00;3.00;;;;;;;;5007627;27;51160;-50
2022/10/15 06:55:35;;;;;;;;;2.67;2.33;;;;;;;;5013281;27;52090;-49
2022/10/15 06:58:00;;;;;;;;;1.00;1.00;;;;;;;;5007537;27;51470;-50
2022/10/15 07:00:25;;;;;;;;;2.00;1.67;;;;;;;;5031159;27;51265;-51
2022/10/15 07:02:51;;;;;;;;;1.00;0.00;;;;;;;;5021584;27;51104;-50
2022/10/15 07:05:16;;;;;;;;;2.00;2.00;;;;;;;;5010035;28;51087;-51
2022/10/15 07:07:42;;;;;;;;;1.00;1.00;;;;;;;;5011802;27;51130;-51
2022/10/15 07:10:07;;;;;;;;;1.00;1.00;;;;;;;;5009332;27;51292;-50
2022/10/15 07:12:33;;;;;;;;;1.00;0.00;;;;;;;;5009134;27;51331;-48
2022/10/15 07:14:58;;;;;;;;;0.00;0.00;;;;;;;;5006495;27;51835;-50
2022/10/15 07:17:23;;;;;;;;;0.67;0.67;;;;;;;;5029464;27;52497;-48
2022/10/15 07:19:48;;;;;;;;;0.33;0.33;;;;;;;;5006950;27;51977;-49
2022/10/15 07:22:14;;;;;;;;;1.00;1.00;;;;;;;;5010239;27;51240;-49
2022/10/15 07:24:39;;;;;;;;;0.00;0.00;;;;;;;;5011944;27;51857;-51
2022/10/15 07:27:04;;;;;;;;;1.00;0.67;;;;;;;;5043557;27;51145;-51
2022/10/15 07:29:30;;;;;;;;;1.00;1.00;;;;;;;;5008550;27;51143;-52
2022/10/15 07:31:55;;;;;;;;;1.00;0.00;;;;;;;;5018766;27;51297;-49
2022/10/15 07:34:21;;;;;;;;;0.00;0.00;;;;;;;;5002494;27;51737;-50
2022/10/15 07:36:46;;;;;;;;;0.00;0.00;;;;;;;;5009274;27;51409;-52
2022/10/15 07:39:12;;;;;;;;;1.33;1.33;;;;;;;;4999973;27;51349;-50
2022/10/15 07:41:37;;;;;;;;;1.00;1.00;;;;;;;;5026025;27;52855;-52
2022/10/15 07:44:02;;;;;;;;;0.00;0.00;;;;;;;;5021640;27;51563;-53
2022/10/15 07:46:27;;;;;;;;;0.00;0.00;;;;;;;;5007596;27;51161;-52
2022/10/15 07:48:53;;;;;;;;;1.00;1.00;;;;;;;;5005513;27;52200;-53
2022/10/15 07:51:18;;;;;;;;;0.00;0.00;;;;;;;;5008225;27;50923;-52
2022/10/15 07:53:43;;;;;;;;;1.00;1.00;;;;;;;;5031334;27;51251;-54
2022/10/15 07:56:09;;;;;;;;;0.00;0.00;;;;;;;;5010418;28;51158;-53
2022/10/15 07:58:37;;;;;;;;;0.00;0.00;;;;;;;;5002884;27;50949;-52
2022/10/15 08:01:02;;;;;;;;;0.00;0.00;;;;;;;;5002787;27;51060;-53
2022/10/15 08:03:28;;;;;;;;;0.00;0.00;;;;;;;;5012596;27;51678;-53
2022/10/15 08:05:54;;;;;;;;;0.00;0.00;;;;;;;;5016897;27;51107;-53
2022/10/15 08:08:20;;;;;;;;;0.00;0.00;;;;;;;;5008909;27;51116;-51
2022/10/15 08:10:45;;;;;;;;;0.00;0.00;;;;;;;;5016364;27;51153;-51
2022/10/15 08:13:11;;;;;;;;;0.33;0.33;;;;;;;;5025072;27;51720;-53
2022/10/15 08:15:39;;;;;;;;;0.00;0.00;;;;;;;;5017109;27;51138;-49
2022/10/15 08:18:05;;;;;;;;;0.00;0.00;;;;;;;;5020749;27;50937;-51
2022/10/15 08:20:30;;;;;;;;;0.00;0.00;;;;;;;;4996601;27;51186;-48
2022/10/15 08:22:55;;;;;;;;;0.00;0.00;;;;;;;;4998585;28;52995;-48
2022/10/15 08:25:20;;;;;;;;;0.00;0.00;;;;;;;;4997807;27;51051;-48
2022/10/15 08:27:45;;;;;;;;;0.00;0.00;;;;;;;;5009553;27;51180;-48
2022/10/15 08:30:11;;;;;;;;;0.00;0.00;;;;;;;;5007024;27;51046;-48
2022/10/15 08:32:36;;;;;;;;;0.00;0.00;;;;;;;;5025346;27;51830;-49
2022/10/15 08:35:01;;;;;;;;;2.00;2.00;;;;;;;;5019046;27;51098;-48
2022/10/15 08:37:26;;;;;;;;;1.00;1.00;;;;;;;;5018663;27;51130;-48
2022/10/15 08:39:52;;;;;;;;;0.00;0.00;;;;;;;;5014616;27;51110;-48
2022/10/15 08:42:19;;;;;;;;;3.00;2.00;;;;;;;;5020929;27;51187;-50
2022/10/15 08:44:48;;;;;;;;;1.00;1.00;;;;;;;;5011886;28;51057;-48
2022/10/15 08:47:27;;;;;;;;;2.00;2.00;;;;;;;;5021096;27;51252;-49
2022/10/15 08:49:54;;;;;;;;;1.00;1.00;;;;;;;;5007696;27;51231;-50
2022/10/15 08:52:38;;;;;;;;;0.00;0.00;;;;;;;;5034977;27;53240;-50
2022/10/15 08:55:03;;;;;;;;;2.00;1.00;;;;;;;;5014503;27;51188;-48
2022/10/15 08:57:36;;;;;;;;;0.00;0.00;;;;;;;;5033915;27;51276;-48
2022/10/15 09:00:22;;;;;;;;;1.33;1.00;;;;;;;;5009358;27;51185;-50
2022/10/15 09:02:47;;;;;;;;;0.67;0.67;;;;;;;;4999459;27;51307;-48
2022/10/15 09:05:25;;;;;;;;;0.67;0.67;;;;;;;;5005463;27;52134;-50
2022/10/15 09:07:50;;;;;;;;;2.00;2.00;;;;;;;;4998344;28;51333;-51
2022/10/15 09:10:17;;;;;;;;;1.00;1.00;;;;;;;;4994135;27;51090;-51
2022/10/15 09:12:51;;;;;;;;;4.67;4.67;;;;;;;;5013371;27;52429;-51
2022/10/15 09:15:18;;;;;;;;;1.00;1.00;;;;;;;;5005123;27;51253;-50
2022/10/15 09:17:45;;;;;;;;;1.00;0.00;;;;;;;;5010009;27;50861;-48
2022/10/15 09:20:14;;;;;;;;;2.00;2.00;;;;;;;;4995703;27;51379;-51
2022/10/15 09:22:39;;;;;;;;;1.00;1.00;;;;;;;;5007825;27;51000;-49
2022/10/15 09:25:18;;;;;;;;;1.00;1.00;;;;;;;;5003718;27;51177;-50
2022/10/15 09:27:44;;;;;;;;;2.00;2.00;;;;;;;;5006157;27;50920;-50
2022/10/15 09:30:28;;;;;;;;;1.00;1.00;;;;;;;;5032393;27;51064;-50
2022/10/15 09:32:56;;;;;;;;;0.00;0.00;;;;;;;;5012008;27;51271;-49
2022/10/15 09:35:25;;;;;;;;;2.00;1.00;;;;;;;;5003834;27;51812;-51
2022/10/15 09:37:58;;;;;;;;;0.00;0.00;;;;;;;;5011789;27;51175;-49
2022/10/15 09:40:27;;;;;;;;;1.00;1.00;;;;;;;;5024484;27;51685;-50
2022/10/15 09:42:53;;;;;;;;;3.00;2.67;;;;;;;;5005715;27;51130;-49
2022/10/15 09:45:19;;;;;;;;;18.67;16.67;;;;;;;;5007675;27;51045;-51
2022/10/15 09:47:45;;;;;;;;;3.67;3.33;;;;;;;;5007743;27;51329;-50
2022/10/15 09:50:11;;;;;;;;;0.00;0.00;;;;;;;;5002419;27;51467;-48
2022/10/15 09:52:46;;;;;;;;;0.00;0.00;;;;;;;;4994929;27;53438;-50
2022/10/15 09:55:29;;;;;;;;;0.00;0.00;;;;;;;;5008522;27;50949;-52
2022/10/15 09:57:57;;;;;;;;;0.00;0.00;;;;;;;;5033064;27;51306;-51
2022/10/15 10:00:22;;;;;;;;;1.00;1.00;;;;;;;;5018232;27;51162;-48
2022/10/15 10:03:05;;;;;;;;;0.00;0.00;;;;;;;;5036836;27;52412;-49
2022/10/15 10:05:32;;;;;;;;;0.00;0.00;;;;;;;;4988928;27;51076;-48
2022/10/15 10:08:08;;;;;;;;;2.00;2.00;;;;;;;;5009610;27;51059;-50
2022/10/15 10:10:35;;;;;;;;;1.00;1.00;;;;;;;;5000804;27;51436;-51
2022/10/15 10:13:00;;;;;;;;;2.00;2.00;;;;;;;;5029967;27;54083;-48
2022/10/15 10:15:33;;;;;;;;;1.00;1.00;;;;;;;;5011516;27;51259;-52
2022/10/15 10:17:58;;;;;;;;;2.33;2.33;;;;;;;;5014883;27;51095;-51
2022/10/15 10:20:25;;;;;;;;;4.67;4.00;;;;;;;;5003684;27;51350;-50
2022/10/15 10:22:51;;;;;;;;;1.00;0.00;;;;;;;;5012404;27;51984;-49
2022/10/15 10:25:25;;;;;;;;;2.00;1.33;;;;;;;;4999807;27;51128;-51
2022/10/15 10:27:51;;;;;;;;;1.33;1.33;;;;;;;;4999353;27;51281;-52
2022/10/15 10:30:16;;;;;;;;;4.33;4.33;;;;;;;;5005477;27;51135;-56
2022/10/15 10:32:42;;;;;;;;;3.00;3.00;;;;;;;;5015052;27;52288;-56
2022/10/15 10:35:18;;;;;;;;;1.00;1.00;;;;;;;;5004381;27;51168;-55
2022/10/15 10:37:43;;;;;;;;;2.00;1.33;;;;;;;;5000339;27;51703;-56
2022/10/15 10:40:26;;;;;;;;;4.67;4.00;;;;;;;;4998315;28;51141;-55
2022/10/15 10:43:09;;;;;;;;;2.33;2.33;;;;;;;;5000405;27;51933;-57
2022/10/15 10:45:34;;;;;;;;;5.33;5.33;;;;;;;;5004214;28;51195;-56
2022/10/15 10:48:16;;;;;;;;;3.00;3.00;;;;;;;;5005948;27;51059;-56
2022/10/15 10:50:42;;;;;;;;;4.33;4.33;;;;;;;;5006226;28;51029;-56
2022/10/15 10:53:19;;;;;;;;;4.00;4.00;;;;;;;;5008923;28;51805;-57
2022/10/15 10:55:45;;;;;;;;;3.67;3.67;;;;;;;;5010183;27;50944;-56
2022/10/15 10:58:16;;;;;;;;;2.33;2.33;;;;;;;;5007662;28;51086;-56
2022/10/15 11:00:43;;;;;;;;;3.00;2.00;;;;;;;;5034969;27;51098;-59
2022/10/15 11:03:19;;;;;;;;;3.00;3.00;;;;;;;;5013325;27;52341;-57
2022/10/15 11:05:46;;;;;;;;;5.00;3.67;;;;;;;;5009730;28;51202;-55
2022/10/15 11:08:11;;;;;;;;;0.00;0.00;;;;;;;;5009628;28;51122;-57
2022/10/15 11:10:40;;;;;;;;;3.50;3.00;;;;;;;;5007178;27;51254;-56
2022/10/15 11:13:20;;;;;;;;;3.33;2.00;;;;;;;;5009791;27;51097;-55
2022/10/15 11:15:55;;;;;;;;;2.33;2.33;;;;;;;;5009419;27;51031;-57
2022/10/15 11:18:28;;;;;;;;;3.00;2.00;;;;;;;;5010712;27;51198;-56
2022/10/15 11:21:09;;;;;;;;;3.00;3.00;;;;;;;;5026142;27;51292;-57
2022/10/15 11:24:03;;;;;;;;;4.33;4.33;;;;;;;;5007999;27;51076;-55
2022/10/15 11:26:47;;;;;;;;;5.00;5.00;;;;;;;;5012820;27;51259;-56
2022/10/15 11:29:31;;;;;;;;;1.00;1.00;;;;;;;;5000414;27;51037;-55
2022/10/15 11:32:20;;;;;;;;;3.33;2.67;;;;;;;;4998949;28;51512;-57
2022/10/15 11:34:45;;;;;;;;;4.00;3.33;;;;;;;;5010158;27;51099;-57
2022/10/15 11:37:29;;;;;;;;;4.00;4.00;;;;;;;;5007058;27;51223;-57
2022/10/15 11:40:18;;;;;;;;;5.33;5.00;;;;;;;;5010285;28;51233;-57
2022/10/15 11:42:54;;;;;;;;;2.33;2.33;;;;;;;;5010280;28;51103;-56
2022/10/15 11:45:47;;;;;;;;;1.67;1.67;;;;;;;;5005871;27;52199;-57
2022/10/15 11:48:33;;;;;;;;;2.00;1.33;;;;;;;;5000696;28;51018;-56
2022/10/15 11:51:07;;;;;;;;;1.67;1.33;;;;;;;;5008747;28;51161;-56
2022/10/15 11:53:38;;;;;;;;;7.33;7.33;;;;;;;;5011411;28;51258;-56
2022/10/15 11:56:13;;;;;;;;;2.00;1.00;;;;;;;;5005651;27;53490;-57
2022/10/15 11:58:44;;;;;;;;;3.67;2.33;;;;;;;;5009287;28;51110;-55
2022/10/15 12:01:24;;;;;;;;;3.00;3.00;;;;;;;;5000166;27;51125;-58
2022/10/15 12:03:54;;;;;;;;;4.00;4.00;;;;;;;;4999003;27;52430;-56
2022/10/15 12:06:21;;;;;;;;;5.00;5.00;;;;;;;;5001859;28;51419;-57
2022/10/15 12:08:46;;;;;;;;;24.33;23.67;;;;;;;;5008958;27;51325;-56
2022/10/15 12:11:18;;;;;;;;;15.33;13.33;;;;;;;;5006911;27;51217;-54
2022/10/15 12:13:50;;;;;;;;;9.67;9.67;;;;;;;;5009674;27;51205;-55
2022/10/15 12:16:22;;;;;;;;;3.67;3.67;;;;;;;;5009053;27;51916;-56
2022/10/15 12:18:56;;;;;;;;;6.33;6.33;;;;;;;;5008720;28;51089;-56
2022/10/15 12:21:30;;;;;;;;;4.33;4.33;;;;;;;;5009910;28;51095;-54
2022/10/15 12:23:55;;;;;;;;;4.00;4.00;;;;;;;;5009545;28;50890;-56
2022/10/15 12:26:23;;;;;;;;;3.00;3.00;;;;;;;;5008186;27;51788;-56
2022/10/15 12:28:53;;;;;;;;;10.67;10.67;;;;;;;;4996055;27;51153;-56
2022/10/15 12:31:19;;;;;;;;;8.00;8.00;;;;;;;;4997641;28;51057;-55
2022/10/15 12:33:49;;;;;;;;;9.33;8.33;;;;;;;;5009707;27;50856;-55
2022/10/15 12:36:17;;;;;;;;;11.00;10.50;;;;;;;;5008371;28;51957;-55
2022/10/15 12:38:55;;;;;;;;;25.75;23.25;;;;;;;;4994408;27;51286;-58
2022/10/15 12:41:20;;;;;;;;;19.67;18.00;;;;;;;;5007349;28;51103;-55
2022/10/15 12:43:52;;;;;;;;;3.67;3.00;;;;;;;;5009956;28;51395;-56
2022/10/15 12:46:17;;;;;;;;;5.00;5.00;;;;;;;;5004989;27;51259;-55
2022/10/15 12:48:44;;;;;;;;;3.00;3.00;;;;;;;;5003725;28;51042;-55
2022/10/15 12:51:15;;;;;;;;;5.33;4.67;;;;;;;;5009550;28;50980;-54
2022/10/15 12:53:41;;;;;;;;;2.00;2.00;;;;;;;;5018199;28;51035;-54
2022/10/15 12:56:09;;;;;;;;;4.00;4.00;;;;;;;;5008155;28;51285;-55
2022/10/15 12:58:35;;;;;;;;;2.33;2.00;;;;;;;;5006418;28;51055;-54
2022/10/15 13:01:06;;;;;;;;;2.00;1.00;;;;;;;;5033342;27;51054;-57
2022/10/15 13:03:39;;;;;;;;;3.00;3.00;;;;;;;;5008267;28;51090;-54
2022/10/15 13:06:20;;;;;;;;;10.33;10.33;;;;;;;;5007402;28;51160;-55
2022/10/15 13:08:48;;;;;;;;;7.00;6.33;;;;;;;;5003582;27;51077;-53
2022/10/15 13:11:36;;;;;;;;;26.50;25.75;;;;;;;;5008329;28;51085;-54
2022/10/15 13:14:10;;;;;;;;;1.00;1.00;;;;;;;;5009650;28;51074;-55
2022/10/15 13:16:36;;;;;;;;;6.00;6.00;;;;;;;;5062028;27;51810;-54
2022/10/15 13:19:02;;;;;;;;;3.00;3.00;;;;;;;;5019140;27;50976;-57
2022/10/15 13:21:48;;;;;;;;;4.33;4.00;;;;;;;;5008044;28;50975;-55
2022/10/15 13:24:16;;;;;;;;;3.67;3.67;;;;;;;;4995956;28;51417;-55
2022/10/15 13:26:41;;;;;;;;;2.00;2.00;;;;;;;;5007765;28;52009;-56
2022/10/15 13:29:14;;;;;;;;;32.00;28.50;;;;;;;;5005425;28;50950;-55
2022/10/15 13:31:39;;;;;;;;;6.67;6.67;;;;;;;;5008765;28;51098;-57
2022/10/15 13:34:12;;;;;;;;;6.00;6.00;;;;;;;;4999641;28;51259;-55
2022/10/15 13:36:37;;;;;;;;;5.00;5.00;;;;;;;;5006321;28;51387;-54
2022/10/15 13:39:05;;;;;;;;;6.00;5.67;;;;;;;;4998906;28;51154;-55
2022/10/15 13:41:33;;;;;;;;;4.00;4.00;;;;;;;;5000340;28;50996;-55
2022/10/15 13:43:59;;;;;;;;;1.00;1.00;;;;;;;;5008492;27;51319;-55
2022/10/15 13:46:26;;;;;;;;;2.00;2.00;;;;;;;;5007164;28;51075;-55
2022/10/15 13:49:09;;;;;;;;;1.33;1.33;;;;;;;;5007142;28;51058;-55
2022/10/15 13:51:42;;;;;;;;;1.00;1.00;;;;;;;;5006628;28;51293;-56
2022/10/15 13:54:15;;;;;;;;;2.67;2.00;;;;;;;;5015175;28;50898;-55
2022/10/15 13:56:42;;;;;;;;;5.33;5.00;;;;;;;;5006767;28;51012;-54
2022/10/15 13:59:14;;;;;;;;;1.67;1.00;;;;;;;;4997284;27;51055;-55
2022/10/15 14:01:44;;;;;;;;;1.67;1.67;;;;;;;;5045688;27;51124;-55
2022/10/15 14:04:13;;;;;;;;;2.00;2.00;;;;;;;;5007655;28;51162;-54
2022/10/15 14:06:40;;;;;;;;;1.00;1.00;;;;;;;;5006107;28;51789;-54
2022/10/15 14:09:23;;;;;;;;;2.00;1.00;;;;;;;;5005943;28;51053;-55
2022/10/15 14:11:49;;;;;;;;;1.67;0.67;;;;;;;;5006469;28;51063;-61
2022/10/15 14:14:26;;;;;;;;;1.00;1.00;;;;;;;;5007230;28;50860;-55
2022/10/15 14:16:52;;;;;;;;;1.00;1.00;;;;;;;;5008023;27;52055;-54
2022/10/15 14:19:20;;;;;;;;;1.00;1.00;;;;;;;;5007519;28;50898;-56
2022/10/15 14:21:47;;;;;;;;;1.00;1.00;;;;;;;;5004661;28;51240;-56
2022/10/15 14:24:48;;;;;;;;;2.00;2.00;;;;;;;;5003836;28;51368;-54
2022/10/15 14:27:20;;;;;;;;;2.00;2.00;;;;;;;;5023573;28;52458;-54
2022/10/15 14:29:50;;;;;;;;;1.67;1.67;;;;;;;;5020538;27;51157;-55
2022/10/15 14:32:19;;;;;;;;;1.00;1.00;;;;;;;;5032104;27;51093;-56
2022/10/15 14:34:45;;;;;;;;;1.33;1.00;;;;;;;;4997974;28;51977;-56
2022/10/15 14:37:29;;;;;;;;;3.00;2.00;;;;;;;;5010156;28;51973;-57
2022/10/15 14:40:10;;;;;;;;;42.25;36.75;;;;;;;;5010208;28;51027;-57
2022/10/15 14:42:39;;;;;;;;;3.00;2.00;;;;;;;;5010642;28;51348;-57
2022/10/15 14:45:11;;;;;;;;;1.00;1.00;;;;;;;;5010858;28;50888;-57
2022/10/15 14:47:36;;;;;;;;;2.00;2.00;;;;;;;;5010045;28;51099;-55
2022/10/15 14:50:03;;;;;;;;;2.67;2.00;;;;;;;;5009239;28;51007;-57